sensor_id;sensor_type;location;lat;lon;timestamp;P1;durP1;ratioP1;P2;durP2;ratioP2
43990;SDS011;29654;50.784;20.604;2023-04-01T00:00:16;11.60;;;9.38;;
43990;SDS011;29654;50.784;20.604;2023-04-01T00:05:21;8.40;;;7.53;;
43990;SDS011;29654;50.784;20.604;2023-04-01T00:10:24;10.25;;;9.25;;
43990;SDS011;29654;50.784;20.604;2023-04-01T00:15:28;9.65;;;8.65;;
43990;SDS011;29654;50.784;20.604;2023-04-01T00:20:31;9.05;;;8.15;;
43990;SDS011;29654;50.784;20.604;2023-04-01T00:25:34;9.43;;;8.43;;
43990;SDS011;29654;50.784;20.604;2023-04-01T00:30:38;9.52;;;8.52;;
43990;SDS011;29654;50.784;20.604;2023-04-01T00:35:40;11.23;;;8.77;;
43990;SDS011;29654;50.784;20.604;2023-04-01T00:40:44;9.00;;;8.15;;
43990;SDS011;29654;50.784;20.604;2023-04-01T00:45:49;9.57;;;8.27;;
43990;SDS011;29654;50.784;20.604;2023-04-01T00:50:53;9.65;;;8.73;;
43990;SDS011;29654;50.784;20.604;2023-04-01T00:56:00;10.13;;;8.98;;
43990;SDS011;29654;50.784;20.604;2023-04-01T01:01:09;10.07;;;8.93;;
43990;SDS011;29654;50.784;20.604;2023-04-01T01:06:24;11.18;;;9.30;;
43990;SDS011;29654;50.784;20.604;2023-04-01T01:11:42;9.75;;;8.75;;
43990;SDS011;29654;50.784;20.604;2023-04-01T01:16:51;10.45;;;9.25;;
43990;SDS011;29654;50.784;20.604;2023-04-01T01:22:03;9.43;;;8.45;;
43990;SDS011;29654;50.784;20.604;2023-04-01T01:27:21;9.88;;;8.85;;
43990;SDS011;29654;50.784;20.604;2023-04-01T01:32:30;10.35;;;8.55;;
43990;SDS011;29654;50.784;20.604;2023-04-01T01:37:59;9.15;;;8.25;;
43990;SDS011;29654;50.784;20.604;2023-04-01T01:43:06;9.57;;;8.57;;
43990;SDS011;29654;50.784;20.604;2023-04-01T01:48:12;8.60;;;7.57;;
43990;SDS011;29654;50.784;20.604;2023-04-01T01:53:17;8.82;;;7.93;;
43990;SDS011;29654;50.784;20.604;2023-04-01T01:58:21;9.75;;;7.35;;
43990;SDS011;29654;50.784;20.604;2023-04-01T02:03:27;15.25;;;8.10;;
43990;SDS011;29654;50.784;20.604;2023-04-01T02:08:35;7.53;;;6.70;;
43990;SDS011;29654;50.784;20.604;2023-04-01T02:13:43;7.10;;;6.35;;
43990;SDS011;29654;50.784;20.604;2023-04-01T02:18:51;15.43;;;7.25;;
43990;SDS011;29654;50.784;20.604;2023-04-01T02:23:58;13.40;;;6.88;;
43990;SDS011;29654;50.784;20.604;2023-04-01T02:29:06;8.07;;;6.65;;
43990;SDS011;29654;50.784;20.604;2023-04-01T02:34:11;7.72;;;6.18;;
43990;SDS011;29654;50.784;20.604;2023-04-01T02:39:15;7.28;;;6.57;;
43990;SDS011;29654;50.784;20.604;2023-04-01T02:44:18;8.00;;;6.60;;
43990;SDS011;29654;50.784;20.604;2023-04-01T02:49:20;8.55;;;7.75;;
43990;SDS011;29654;50.784;20.604;2023-04-01T02:54:24;9.52;;;7.97;;
43990;SDS011;29654;50.784;20.604;2023-04-01T02:59:27;9.57;;;8.00;;
43990;SDS011;29654;50.784;20.604;2023-04-01T03:04:29;8.57;;;6.93;;
43990;SDS011;29654;50.784;20.604;2023-04-01T03:09:33;12.45;;;8.43;;
43990;SDS011;29654;50.784;20.604;2023-04-01T03:14:36;9.90;;;8.32;;
43990;SDS011;29654;50.784;20.604;2023-04-01T03:19:38;11.30;;;8.60;;
43990;SDS011;29654;50.784;20.604;2023-04-01T03:24:44;9.68;;;7.97;;
43990;SDS011;29654;50.784;20.604;2023-04-01T03:29:47;8.23;;;7.38;;
43990;SDS011;29654;50.784;20.604;2023-04-01T03:34:49;9.30;;;7.40;;
43990;SDS011;29654;50.784;20.604;2023-04-01T03:39:53;9.00;;;7.47;;
43990;SDS011;29654;50.784;20.604;2023-04-01T03:44:56;9.75;;;7.78;;
43990;SDS011;29654;50.784;20.604;2023-04-01T03:49:58;8.52;;;7.10;;
43990;SDS011;29654;50.784;20.604;2023-04-01T03:55:03;9.23;;;6.45;;
43990;SDS011;29654;50.784;20.604;2023-04-01T04:00:07;10.82;;;9.27;;
43990;SDS011;29654;50.784;20.604;2023-04-01T04:05:14;8.30;;;7.50;;
43990;SDS011;29654;50.784;20.604;2023-04-01T04:10:19;7.15;;;6.45;;
43990;SDS011;29654;50.784;20.604;2023-04-01T04:15:22;7.82;;;7.03;;
43990;SDS011;29654;50.784;20.604;2023-04-01T04:20:25;7.80;;;7.00;;
43990;SDS011;29654;50.784;20.604;2023-04-01T04:25:29;7.32;;;6.25;;
43990;SDS011;29654;50.784;20.604;2023-04-01T04:30:32;6.55;;;5.95;;
43990;SDS011;29654;50.784;20.604;2023-04-01T04:35:35;6.43;;;5.72;;
43990;SDS011;29654;50.784;20.604;2023-04-01T04:40:39;7.55;;;6.00;;
43990;SDS011;29654;50.784;20.604;2023-04-01T04:45:44;6.50;;;5.70;;
43990;SDS011;29654;50.784;20.604;2023-04-01T04:50:49;6.28;;;5.63;;
43990;SDS011;29654;50.784;20.604;2023-04-01T04:55:57;8.20;;;6.10;;
43990;SDS011;29654;50.784;20.604;2023-04-01T05:01:11;7.40;;;5.65;;
43990;SDS011;29654;50.784;20.604;2023-04-01T05:06:17;7.05;;;5.65;;
43990;SDS011;29654;50.784;20.604;2023-04-01T05:11:22;6.20;;;5.43;;
43990;SDS011;29654;50.784;20.604;2023-04-01T05:16:26;6.50;;;5.32;;
43990;SDS011;29654;50.784;20.604;2023-04-01T05:21:28;7.72;;;5.80;;
43990;SDS011;29654;50.784;20.604;2023-04-01T05:26:33;5.82;;;5.15;;
43990;SDS011;29654;50.784;20.604;2023-04-01T05:31:37;7.38;;;5.72;;
43990;SDS011;29654;50.784;20.604;2023-04-01T05:36:40;5.72;;;5.13;;
43990;SDS011;29654;50.784;20.604;2023-04-01T05:41:44;6.82;;;5.22;;
43990;SDS011;29654;50.784;20.604;2023-04-01T05:46:48;7.22;;;5.57;;
43990;SDS011;29654;50.784;20.604;2023-04-01T05:52:00;6.30;;;5.05;;
43990;SDS011;29654;50.784;20.604;2023-04-01T05:57:06;5.72;;;5.15;;
43990;SDS011;29654;50.784;20.604;2023-04-01T06:02:09;6.50;;;5.00;;
43990;SDS011;29654;50.784;20.604;2023-04-01T06:07:12;5.13;;;4.63;;
43990;SDS011;29654;50.784;20.604;2023-04-01T06:12:20;6.72;;;5.43;;
43990;SDS011;29654;50.784;20.604;2023-04-01T06:23:55;6.60;;;4.90;;
43990;SDS011;29654;50.784;20.604;2023-04-01T06:29:27;5.80;;;5.30;;
43990;SDS011;29654;50.784;20.604;2023-04-01T06:34:59;6.05;;;4.90;;
43990;SDS011;29654;50.784;20.604;2023-04-01T06:40:33;6.10;;;5.50;;
43990;SDS011;29654;50.784;20.604;2023-04-01T06:45:59;6.13;;;4.70;;
43990;SDS011;29654;50.784;20.604;2023-04-01T06:51:40;6.22;;;5.00;;
43990;SDS011;29654;50.784;20.604;2023-04-01T06:57:16;5.53;;;5.03;;
43990;SDS011;29654;50.784;20.604;2023-04-01T07:02:31;6.40;;;5.35;;
43990;SDS011;29654;50.784;20.604;2023-04-01T07:07:41;6.53;;;5.07;;
43990;SDS011;29654;50.784;20.604;2023-04-01T07:12:48;5.53;;;5.00;;
43990;SDS011;29654;50.784;20.604;2023-04-01T07:18:17;7.53;;;5.53;;
43990;SDS011;29654;50.784;20.604;2023-04-01T07:23:28;5.63;;;4.88;;
43990;SDS011;29654;50.784;20.604;2023-04-01T07:28:57;5.57;;;5.13;;
43990;SDS011;29654;50.784;20.604;2023-04-01T07:34:12;7.95;;;5.50;;
43990;SDS011;29654;50.784;20.604;2023-04-01T07:39:28;6.47;;;5.18;;
43990;SDS011;29654;50.784;20.604;2023-04-01T07:44:52;5.53;;;5.03;;
43990;SDS011;29654;50.784;20.604;2023-04-01T07:50:09;5.25;;;4.82;;
43990;SDS011;29654;50.784;20.604;2023-04-01T07:55:21;6.53;;;5.20;;
43990;SDS011;29654;50.784;20.604;2023-04-01T08:00:30;5.93;;;5.32;;
43990;SDS011;29654;50.784;20.604;2023-04-01T08:05:53;6.03;;;5.50;;
43990;SDS011;29654;50.784;20.604;2023-04-01T08:11:02;5.03;;;4.38;;
43990;SDS011;29654;50.784;20.604;2023-04-01T08:16:15;5.57;;;5.07;;
43990;SDS011;29654;50.784;20.604;2023-04-01T08:21:27;5.70;;;4.85;;
43990;SDS011;29654;50.784;20.604;2023-04-01T08:26:34;4.82;;;4.35;;
43990;SDS011;29654;50.784;20.604;2023-04-01T08:31:43;4.82;;;4.28;;
43990;SDS011;29654;50.784;20.604;2023-04-01T08:36:53;5.72;;;4.72;;
43990;SDS011;29654;50.784;20.604;2023-04-01T08:42:07;6.20;;;5.00;;
43990;SDS011;29654;50.784;20.604;2023-04-01T08:48:13;3.97;;;3.58;;
43990;SDS011;29654;50.784;20.604;2023-04-01T08:53:52;4.72;;;4.10;;
43990;SDS011;29654;50.784;20.604;2023-04-01T08:59:15;4.00;;;3.60;;
43990;SDS011;29654;50.784;20.604;2023-04-01T09:05:25;4.80;;;4.00;;
43990;SDS011;29654;50.784;20.604;2023-04-01T09:10:57;4.20;;;3.75;;
43990;SDS011;29654;50.784;20.604;2023-04-01T09:16:51;4.05;;;3.63;;
43990;SDS011;29654;50.784;20.604;2023-04-01T09:22:37;3.85;;;2.90;;
43990;SDS011;29654;50.784;20.604;2023-04-01T09:27:56;3.25;;;2.95;;
43990;SDS011;29654;50.784;20.604;2023-04-01T09:39:11;4.63;;;3.20;;
43990;SDS011;29654;50.784;20.604;2023-04-01T09:44:35;3.20;;;2.70;;
43990;SDS011;29654;50.784;20.604;2023-04-01T09:49:54;2.75;;;2.47;;
43990;SDS011;29654;50.784;20.604;2023-04-01T09:55:30;3.10;;;2.80;;
43990;SDS011;29654;50.784;20.604;2023-04-01T10:01:05;2.40;;;2.30;;
43990;SDS011;29654;50.784;20.604;2023-04-01T10:12:47;4.05;;;2.88;;
43990;SDS011;29654;50.784;20.604;2023-04-01T10:18:28;2.40;;;2.22;;
43990;SDS011;29654;50.784;20.604;2023-04-01T10:36:04;2.47;;;2.10;;
43990;SDS011;29654;50.784;20.604;2023-04-01T10:41:54;2.05;;;1.77;;
43990;SDS011;29654;50.784;20.604;2023-04-01T10:48:02;2.38;;;2.13;;
43990;SDS011;29654;50.784;20.604;2023-04-01T10:53:38;1.95;;;1.85;;
43990;SDS011;29654;50.784;20.604;2023-04-01T11:17:16;1.50;;;1.40;;
43990;SDS011;29654;50.784;20.604;2023-04-01T11:22:56;1.05;;;1.02;;
43990;SDS011;29654;50.784;20.604;2023-04-01T11:28:35;1.00;;;1.00;;
43990;SDS011;29654;50.784;20.604;2023-04-01T11:34:56;1.20;;;1.10;;
43990;SDS011;29654;50.784;20.604;2023-04-01T11:40:52;1.90;;;1.20;;
43990;SDS011;29654;50.784;20.604;2023-04-01T11:46:25;1.58;;;1.40;;
43990;SDS011;29654;50.784;20.604;2023-04-01T11:51:43;1.75;;;1.15;;
43990;SDS011;29654;50.784;20.604;2023-04-01T11:57:41;1.40;;;1.23;;
43990;SDS011;29654;50.784;20.604;2023-04-01T12:03:00;1.50;;;1.40;;
43990;SDS011;29654;50.784;20.604;2023-04-01T12:08:30;1.30;;;1.20;;
43990;SDS011;29654;50.784;20.604;2023-04-01T12:13:42;1.40;;;1.30;;
43990;SDS011;29654;50.784;20.604;2023-04-01T12:18:54;1.30;;;1.20;;
43990;SDS011;29654;50.784;20.604;2023-04-01T12:29:42;0.70;;;0.70;;
43990;SDS011;29654;50.784;20.604;2023-04-01T12:35:12;1.00;;;0.90;;
43990;SDS011;29654;50.784;20.604;2023-04-01T12:40:26;1.10;;;1.00;;
43990;SDS011;29654;50.784;20.604;2023-04-01T12:45:49;1.73;;;0.95;;
43990;SDS011;29654;50.784;20.604;2023-04-01T12:56:53;0.85;;;0.85;;
43990;SDS011;29654;50.784;20.604;2023-04-01T13:02:12;0.82;;;0.82;;
43990;SDS011;29654;50.784;20.604;2023-04-01T13:07:33;1.15;;;1.05;;
43990;SDS011;29654;50.784;20.604;2023-04-01T13:13:11;0.90;;;0.90;;
43990;SDS011;29654;50.784;20.604;2023-04-01T13:18:44;1.35;;;1.23;;
43990;SDS011;29654;50.784;20.604;2023-04-01T13:24:00;1.20;;;1.00;;
43990;SDS011;29654;50.784;20.604;2023-04-01T13:29:12;1.20;;;1.10;;
43990;SDS011;29654;50.784;20.604;2023-04-01T13:34:26;1.42;;;1.33;;
43990;SDS011;29654;50.784;20.604;2023-04-01T13:39:43;1.55;;;1.45;;
43990;SDS011;29654;50.784;20.604;2023-04-01T13:44:59;1.80;;;1.70;;
43990;SDS011;29654;50.784;20.604;2023-04-01T13:56:09;1.88;;;1.45;;
43990;SDS011;29654;50.784;20.604;2023-04-01T14:01:33;1.90;;;1.80;;
43990;SDS011;29654;50.784;20.604;2023-04-01T14:06:46;1.52;;;1.42;;
43990;SDS011;29654;50.784;20.604;2023-04-01T14:12:04;1.67;;;1.27;;
43990;SDS011;29654;50.784;20.604;2023-04-01T14:17:14;1.50;;;1.20;;
43990;SDS011;29654;50.784;20.604;2023-04-01T14:22:38;1.10;;;1.00;;
43990;SDS011;29654;50.784;20.604;2023-04-01T14:27:52;1.20;;;1.10;;
43990;SDS011;29654;50.784;20.604;2023-04-01T14:33:05;1.67;;;1.35;;
43990;SDS011;29654;50.784;20.604;2023-04-01T14:38:27;1.30;;;1.20;;
43990;SDS011;29654;50.784;20.604;2023-04-01T14:49:30;1.92;;;1.35;;
43990;SDS011;29654;50.784;20.604;2023-04-01T14:54:37;1.15;;;0.95;;
43990;SDS011;29654;50.784;20.604;2023-04-01T14:59:47;1.42;;;1.33;;
43990;SDS011;29654;50.784;20.604;2023-04-01T15:04:54;2.25;;;1.58;;
43990;SDS011;29654;50.784;20.604;2023-04-01T15:10:09;1.90;;;1.45;;
43990;SDS011;29654;50.784;20.604;2023-04-01T15:15:52;1.58;;;1.48;;
43990;SDS011;29654;50.784;20.604;2023-04-01T15:21:18;3.85;;;2.28;;
43990;SDS011;29654;50.784;20.604;2023-04-01T15:32:41;4.00;;;2.35;;
43990;SDS011;29654;50.784;20.604;2023-04-01T15:37:55;2.50;;;2.17;;
43990;SDS011;29654;50.784;20.604;2023-04-01T15:43:10;1.75;;;1.65;;
43990;SDS011;29654;50.784;20.604;2023-04-01T15:48:30;2.20;;;2.10;;
43990;SDS011;29654;50.784;20.604;2023-04-01T15:59:18;2.83;;;2.60;;
43990;SDS011;29654;50.784;20.604;2023-04-01T16:04:43;2.70;;;2.50;;
43990;SDS011;29654;50.784;20.604;2023-04-01T16:09:58;2.40;;;2.20;;
43990;SDS011;29654;50.784;20.604;2023-04-01T16:15:21;3.83;;;3.47;;
43990;SDS011;29654;50.784;20.604;2023-04-01T16:20:39;2.58;;;2.38;;
43990;SDS011;29654;50.784;20.604;2023-04-01T16:25:49;2.28;;;2.08;;
43990;SDS011;29654;50.784;20.604;2023-04-01T16:31:04;1.92;;;1.80;;
43990;SDS011;29654;50.784;20.604;2023-04-01T16:36:19;2.85;;;2.65;;
43990;SDS011;29654;50.784;20.604;2023-04-01T16:41:29;3.55;;;3.20;;
43990;SDS011;29654;50.784;20.604;2023-04-01T16:46:36;2.63;;;2.42;;
43990;SDS011;29654;50.784;20.604;2023-04-01T16:51:44;3.30;;;2.63;;
43990;SDS011;29654;50.784;20.604;2023-04-01T16:56:50;3.55;;;3.25;;
43990;SDS011;29654;50.784;20.604;2023-04-01T17:02:02;4.18;;;3.55;;
43990;SDS011;29654;50.784;20.604;2023-04-01T17:07:15;4.75;;;4.30;;
43990;SDS011;29654;50.784;20.604;2023-04-01T17:12:32;4.75;;;4.35;;
43990;SDS011;29654;50.784;20.604;2023-04-01T17:17:45;5.00;;;4.03;;
43990;SDS011;29654;50.784;20.604;2023-04-01T17:22:58;4.75;;;4.35;;
43990;SDS011;29654;50.784;20.604;2023-04-01T17:28:16;4.97;;;4.57;;
43990;SDS011;29654;50.784;20.604;2023-04-01T17:39:22;6.57;;;5.97;;
43990;SDS011;29654;50.784;20.604;2023-04-01T17:44:45;4.93;;;4.53;;
43990;SDS011;29654;50.784;20.604;2023-04-01T17:49:59;4.53;;;4.13;;
43990;SDS011;29654;50.784;20.604;2023-04-01T17:55:25;4.53;;;4.15;;
43990;SDS011;29654;50.784;20.604;2023-04-01T18:00:55;6.53;;;5.30;;
43990;SDS011;29654;50.784;20.604;2023-04-01T18:06:11;5.53;;;5.05;;
43990;SDS011;29654;50.784;20.604;2023-04-01T18:11:24;7.72;;;7.00;;
43990;SDS011;29654;50.784;20.604;2023-04-01T18:16:42;9.00;;;8.20;;
43990;SDS011;29654;50.784;20.604;2023-04-01T18:22:06;8.15;;;7.35;;
43990;SDS011;29654;50.784;20.604;2023-04-01T18:27:21;7.68;;;6.88;;
43990;SDS011;29654;50.784;20.604;2023-04-01T18:32:27;7.82;;;7.05;;
43990;SDS011;29654;50.784;20.604;2023-04-01T18:37:37;7.25;;;6.65;;
43990;SDS011;29654;50.784;20.604;2023-04-01T18:42:53;6.70;;;6.07;;
43990;SDS011;29654;50.784;20.604;2023-04-01T18:48:10;6.40;;;5.80;;
43990;SDS011;29654;50.784;20.604;2023-04-01T18:53:41;6.57;;;5.97;;
43990;SDS011;29654;50.784;20.604;2023-04-01T18:58:52;8.68;;;7.82;;
43990;SDS011;29654;50.784;20.604;2023-04-01T19:04:12;10.13;;;8.85;;
43990;SDS011;29654;50.784;20.604;2023-04-01T19:09:25;10.43;;;8.18;;
43990;SDS011;29654;50.784;20.604;2023-04-01T19:14:35;11.85;;;10.50;;
43990;SDS011;29654;50.784;20.604;2023-04-01T19:19:55;9.55;;;8.43;;
43990;SDS011;29654;50.784;20.604;2023-04-01T19:30:37;10.18;;;8.98;;
43990;SDS011;29654;50.784;20.604;2023-04-01T19:35:54;10.40;;;9.32;;
43990;SDS011;29654;50.784;20.604;2023-04-01T19:41:12;11.75;;;9.68;;
43990;SDS011;29654;50.784;20.604;2023-04-01T19:46:32;13.55;;;12.15;;
43990;SDS011;29654;50.784;20.604;2023-04-01T19:51:39;11.82;;;9.80;;
43990;SDS011;29654;50.784;20.604;2023-04-01T19:56:53;20.63;;;16.65;;
43990;SDS011;29654;50.784;20.604;2023-04-01T20:02:33;12.02;;;10.80;;
43990;SDS011;29654;50.784;20.604;2023-04-01T20:07:52;10.40;;;9.15;;
43990;SDS011;29654;50.784;20.604;2023-04-01T20:13:02;9.02;;;7.72;;
43990;SDS011;29654;50.784;20.604;2023-04-01T20:18:14;8.73;;;7.90;;
43990;SDS011;29654;50.784;20.604;2023-04-01T20:23:26;9.00;;;7.65;;
43990;SDS011;29654;50.784;20.604;2023-04-01T20:28:45;7.88;;;6.93;;
43990;SDS011;29654;50.784;20.604;2023-04-01T20:34:20;8.50;;;7.70;;
43990;SDS011;29654;50.784;20.604;2023-04-01T20:39:46;8.80;;;7.90;;
43990;SDS011;29654;50.784;20.604;2023-04-01T20:45:23;7.75;;;6.95;;
43990;SDS011;29654;50.784;20.604;2023-04-01T20:50:37;6.68;;;6.05;;
43990;SDS011;29654;50.784;20.604;2023-04-01T20:55:57;5.90;;;5.38;;
43990;SDS011;29654;50.784;20.604;2023-04-01T21:01:30;5.95;;;5.40;;
43990;SDS011;29654;50.784;20.604;2023-04-01T21:06:52;5.15;;;4.57;;
43990;SDS011;29654;50.784;20.604;2023-04-01T21:12:25;5.97;;;5.35;;
43990;SDS011;29654;50.784;20.604;2023-04-01T21:17:42;7.10;;;5.30;;
43990;SDS011;29654;50.784;20.604;2023-04-01T21:23:04;7.32;;;5.07;;
43990;SDS011;29654;50.784;20.604;2023-04-01T21:28:29;7.63;;;6.80;;
43990;SDS011;29654;50.784;20.604;2023-04-01T21:33:53;7.82;;;6.57;;
43990;SDS011;29654;50.784;20.604;2023-04-01T21:39:34;6.95;;;5.43;;
43990;SDS011;29654;50.784;20.604;2023-04-01T21:44:55;5.30;;;4.82;;
43990;SDS011;29654;50.784;20.604;2023-04-01T21:50:17;4.90;;;4.40;;
43990;SDS011;29654;50.784;20.604;2023-04-01T22:02:03;5.80;;;4.75;;
43990;SDS011;29654;50.784;20.604;2023-04-01T22:07:28;5.22;;;4.78;;
43990;SDS011;29654;50.784;20.604;2023-04-01T22:12:40;5.07;;;4.63;;
43990;SDS011;29654;50.784;20.604;2023-04-01T22:17:51;5.57;;;5.07;;
43990;SDS011;29654;50.784;20.604;2023-04-01T22:23:07;5.65;;;5.15;;
43990;SDS011;29654;50.784;20.604;2023-04-01T22:28:26;5.90;;;5.13;;
43990;SDS011;29654;50.784;20.604;2023-04-01T22:33:35;5.00;;;4.32;;
43990;SDS011;29654;50.784;20.604;2023-04-01T22:38:51;5.18;;;4.68;;
43990;SDS011;29654;50.784;20.604;2023-04-01T22:44:14;5.00;;;4.50;;
43990;SDS011;29654;50.784;20.604;2023-04-01T22:49:32;5.55;;;4.47;;
43990;SDS011;29654;50.784;20.604;2023-04-01T22:54:41;4.85;;;4.45;;
43990;SDS011;29654;50.784;20.604;2023-04-01T22:59:50;5.22;;;4.80;;
43990;SDS011;29654;50.784;20.604;2023-04-01T23:05:00;6.05;;;5.30;;
43990;SDS011;29654;50.784;20.604;2023-04-01T23:10:12;6.28;;;5.68;;
43990;SDS011;29654;50.784;20.604;2023-04-01T23:15:21;6.60;;;6.00;;
43990;SDS011;29654;50.784;20.604;2023-04-01T23:20:27;6.10;;;5.50;;
43990;SDS011;29654;50.784;20.604;2023-04-01T23:25:44;6.40;;;5.72;;
43990;SDS011;29654;50.784;20.604;2023-04-01T23:30:56;14.93;;;5.78;;
43990;SDS011;29654;50.784;20.604;2023-04-01T23:35:59;5.90;;;5.40;;
43990;SDS011;29654;50.784;20.604;2023-04-01T23:41:06;6.10;;;5.60;;
43990;SDS011;29654;50.784;20.604;2023-04-01T23:46:12;5.85;;;5.35;;
43990;SDS011;29654;50.784;20.604;2023-04-01T23:51:17;6.70;;;6.07;;
43990;SDS011;29654;50.784;20.604;2023-04-01T23:56:24;6.72;;;6.13;;
